createdAt,value
2022-11-30T00:00:54.466Z,2.75
2022-11-30T00:03:47.394Z,2.80
2022-11-30T00:06:36.766Z,2.83
2022-11-30T00:09:26.195Z,2.60
2022-11-30T00:12:16.279Z,2.97
2022-11-30T00:15:06.167Z,2.88
2022-11-30T00:18:00.172Z,3.10
2022-11-30T00:20:49.768Z,2.78
2022-11-30T00:23:41.392Z,2.83
2022-11-30T00:26:30.910Z,2.85
2022-11-30T00:29:20.348Z,2.80
2022-11-30T00:32:09.935Z,2.83
2022-11-30T00:34:59.784Z,2.80
2022-11-30T00:37:49.231Z,2.85
2022-11-30T00:40:38.840Z,2.95
2022-11-30T00:43:28.754Z,2.50
2022-11-30T00:46:19.339Z,2.70
2022-11-30T00:49:09.055Z,2.80
2022-11-30T00:51:58.526Z,2.97
2022-11-30T00:54:48.421Z,2.95
2022-11-30T00:57:38.206Z,2.63
2022-11-30T01:00:31.553Z,2.80
2022-11-30T01:03:20.942Z,2.60
2022-11-30T01:06:11.309Z,2.60
2022-11-30T01:09:01.271Z,2.50
2022-11-30T01:11:51.148Z,2.70
2022-11-30T01:14:40.687Z,2.60
2022-11-30T01:17:31.505Z,2.65
2022-11-30T01:20:21.296Z,2.90
2022-11-30T01:23:11.676Z,2.60
2022-11-30T01:26:01.306Z,2.67
2022-11-30T01:28:55.541Z,2.90
2022-11-30T01:31:45.153Z,2.75
2022-11-30T01:34:34.685Z,2.60
2022-11-30T01:37:24.392Z,2.63
2022-11-30T01:40:15.467Z,2.70
2022-11-30T01:43:04.980Z,2.50
2022-11-30T01:45:54.602Z,2.70
2022-11-30T01:48:44.141Z,2.50
2022-11-30T01:51:49.887Z,2.65
2022-11-30T01:54:54.543Z,2.70
2022-11-30T01:57:52.909Z,2.70
2022-11-30T02:00:46.955Z,2.42
2022-11-30T02:04:00.744Z,2.60
2022-11-30T02:06:51.403Z,2.40
2022-11-30T02:09:46.990Z,2.33
2022-11-30T02:13:00.674Z,2.55
2022-11-30T02:16:23.133Z,2.53
2022-11-30T02:19:15.977Z,2.42
2022-11-30T02:22:31.977Z,2.40
2022-11-30T02:25:38.445Z,2.30
2022-11-30T02:28:54.917Z,2.33
2022-11-30T02:32:00.588Z,2.60
2022-11-30T02:34:51.865Z,2.30
2022-11-30T02:37:41.668Z,2.72
2022-11-30T02:40:31.346Z,2.65
2022-11-30T02:43:24.352Z,2.60
2022-11-30T02:46:43.529Z,2.25
2022-11-30T02:50:00.045Z,2.55
2022-11-30T02:52:50.499Z,2.72
2022-11-30T02:55:39.896Z,2.67
2022-11-30T02:58:29.431Z,2.42
2022-11-30T03:01:19.099Z,2.40
2022-11-30T03:04:10.839Z,2.50
2022-11-30T03:07:00.358Z,2.65
2022-11-30T03:09:50.069Z,2.85
2022-11-30T03:12:39.492Z,2.60
2022-11-30T03:15:29.884Z,2.70
2022-11-30T03:18:19.399Z,2.80
2022-11-30T03:21:11.156Z,2.47
2022-11-30T03:24:00.597Z,2.85
2022-11-30T03:26:50.346Z,2.63
2022-11-30T03:29:40.508Z,2.70
2022-11-30T03:32:31.575Z,2.65
2022-11-30T03:35:21.742Z,2.55
2022-11-30T03:38:11.240Z,2.85
2022-11-30T03:41:05.383Z,3.15
2022-11-30T03:43:55.128Z,2.40
2022-11-30T03:46:44.770Z,2.67
2022-11-30T03:49:34.413Z,2.67
2022-11-30T03:52:24.125Z,2.75
2022-11-30T03:55:13.928Z,2.70
2022-11-30T03:58:03.533Z,3.00
2022-11-30T04:01:10.687Z,2.72
2022-11-30T04:04:00.376Z,2.65
2022-11-30T04:06:49.932Z,2.80
2022-11-30T04:09:40.350Z,2.92
2022-11-30T04:12:30.249Z,2.92
2022-11-30T04:15:19.792Z,2.85
2022-11-30T04:18:09.399Z,2.75
2022-11-30T04:21:00.249Z,2.63
2022-11-30T04:23:49.630Z,2.78
2022-11-30T04:26:39.411Z,2.90
2022-11-30T04:29:28.912Z,3.08
2022-11-30T04:32:18.576Z,3.38
2022-11-30T04:35:08.640Z,3.08
2022-11-30T04:37:58.362Z,3.10
2022-11-30T04:40:48.103Z,3.30
2022-11-30T04:43:38.323Z,3.25
2022-11-30T04:46:27.883Z,3.10
2022-11-30T04:49:17.319Z,2.85
2022-11-30T04:52:08.658Z,3.63
2022-11-30T04:54:59.215Z,3.60
2022-11-30T04:57:51.215Z,3.90
2022-11-30T05:00:42.254Z,3.63
2022-11-30T05:03:35.534Z,3.90
2022-11-30T05:09:16.821Z,3.95
2022-11-30T05:12:10.035Z,4.18
2022-11-30T05:15:00.821Z,4.28
2022-11-30T05:17:51.221Z,3.83
2022-11-30T05:20:41.772Z,4.50
2022-11-30T05:23:32.860Z,4.25
2022-11-30T05:26:23.251Z,4.13
2022-11-30T05:29:13.613Z,4.72
2022-11-30T05:32:04.895Z,4.45
2022-11-30T05:34:55.840Z,4.68
2022-11-30T05:37:46.503Z,4.47
2022-11-30T05:40:37.081Z,4.85
2022-11-30T05:43:27.893Z,4.68
2022-11-30T05:46:18.447Z,4.38
2022-11-30T05:49:09.940Z,5.03
2022-11-30T05:52:00.599Z,4.85
2022-11-30T05:54:52.014Z,4.75
2022-11-30T05:57:43.421Z,4.55
2022-11-30T06:00:33.704Z,5.05
2022-11-30T06:03:24.740Z,4.93
2022-11-30T06:06:15.955Z,5.20
2022-11-30T06:09:06.211Z,4.88
2022-11-30T06:11:56.956Z,5.18
2022-11-30T06:14:47.044Z,4.70
2022-11-30T06:17:39.545Z,5.15
2022-11-30T06:20:29.882Z,5.28
2022-11-30T06:23:19.963Z,5.47
2022-11-30T06:26:12.511Z,5.18
2022-11-30T06:29:03.132Z,5.20
2022-11-30T06:31:53.573Z,5.25
2022-11-30T06:34:44.339Z,5.18
2022-11-30T06:37:37.928Z,5.40
2022-11-30T06:40:29.890Z,5.22
2022-11-30T06:43:20.965Z,4.95
2022-11-30T06:46:12.253Z,5.78
2022-11-30T06:49:03.365Z,5.65
2022-11-30T06:51:53.657Z,5.35
2022-11-30T06:54:43.685Z,5.85
2022-11-30T06:57:34.023Z,5.70
2022-11-30T07:00:24.462Z,6.20
2022-11-30T07:03:15.858Z,5.07
2022-11-30T07:06:15.282Z,5.32
2022-11-30T07:09:05.941Z,5.80
2022-11-30T07:11:56.211Z,5.53
2022-11-30T07:14:46.929Z,5.57
2022-11-30T07:17:37.296Z,6.15
2022-11-30T07:20:28.700Z,6.00
2022-11-30T07:23:37.943Z,5.50
2022-11-30T07:26:29.294Z,5.85
2022-11-30T07:29:20.342Z,5.72
2022-11-30T07:32:11.074Z,5.30
2022-11-30T07:35:01.053Z,5.68
2022-11-30T07:37:51.388Z,6.30
2022-11-30T07:40:42.186Z,5.65
2022-11-30T07:43:32.421Z,6.03
2022-11-30T07:46:22.777Z,5.70
2022-11-30T07:49:13.080Z,5.63
2022-11-30T07:52:05.925Z,5.72
2022-11-30T07:54:56.537Z,5.72
2022-11-30T07:57:47.169Z,5.75
2022-11-30T08:00:38.894Z,5.75
2022-11-30T08:03:32.393Z,5.88
2022-11-30T08:06:31.805Z,5.50
2022-11-30T08:09:23.152Z,6.13
2022-11-30T08:12:14.582Z,5.85
2022-11-30T08:15:23.425Z,5.65
2022-11-30T08:18:17.759Z,5.18
2022-11-30T08:21:10.782Z,5.47
2022-11-30T08:24:00.972Z,5.25
2022-11-30T08:26:55.055Z,5.75
2022-11-30T08:29:45.684Z,5.70
2022-11-30T08:32:36.111Z,5.70
2022-11-30T08:35:27.053Z,5.80
2022-11-30T08:38:17.962Z,5.50
2022-11-30T08:41:09.633Z,5.20
2022-11-30T08:44:00.100Z,5.30
2022-11-30T08:46:52.104Z,5.95
2022-11-30T08:49:42.810Z,5.30
2022-11-30T08:52:34.727Z,5.55
2022-11-30T08:55:25.299Z,5.50
2022-11-30T08:58:16.167Z,5.85
2022-11-30T09:01:27.108Z,5.60
2022-11-30T09:04:20.178Z,5.32
2022-11-30T09:10:05.777Z,4.97
2022-11-30T09:12:57.913Z,5.25
2022-11-30T09:15:58.096Z,5.00
2022-11-30T09:18:50.090Z,5.07
2022-11-30T09:21:41.002Z,5.28
2022-11-30T09:24:31.465Z,5.57
2022-11-30T09:27:23.387Z,5.35
2022-11-30T09:30:14.323Z,5.80
2022-11-30T09:33:04.887Z,5.63
2022-11-30T09:36:00.634Z,5.55
2022-11-30T09:38:51.620Z,5.72
2022-11-30T09:41:47.584Z,5.50
2022-11-30T09:45:03.632Z,5.85
2022-11-30T09:48:25.962Z,5.63
2022-11-30T09:51:50.265Z,5.40
2022-11-30T09:57:34.053Z,4.78
2022-11-30T10:00:27.454Z,5.53
2022-11-30T10:03:26.415Z,5.75
2022-11-30T10:06:35.409Z,5.65
2022-11-30T10:10:09.333Z,4.93
2022-11-30T10:13:19.222Z,5.45
2022-11-30T10:16:46.171Z,5.25
2022-11-30T10:19:58.017Z,5.60
2022-11-30T10:23:06.271Z,5.38
2022-11-30T10:25:56.922Z,5.30
2022-11-30T10:28:55.319Z,5.20
2022-11-30T10:31:47.663Z,6.22
2022-11-30T10:34:38.732Z,5.72
2022-11-30T10:37:41.377Z,5.25
2022-11-30T10:40:56.433Z,5.35
2022-11-30T10:43:50.260Z,5.82
2022-11-30T10:46:46.546Z,5.68
2022-11-30T10:49:38.634Z,5.43
2022-11-30T10:52:33.916Z,5.22
2022-11-30T10:55:31.382Z,5.88
2022-11-30T10:58:34.133Z,6.13
2022-11-30T11:01:42.807Z,6.28
2022-11-30T11:04:33.657Z,5.53
2022-11-30T11:07:25.189Z,6.05
2022-11-30T11:10:22.104Z,5.93
2022-11-30T11:13:37.460Z,5.80
2022-11-30T11:16:28.004Z,5.57
2022-11-30T11:19:34.329Z,5.55
2022-11-30T11:22:27.744Z,6.38
2022-11-30T11:25:29.169Z,5.90
2022-11-30T11:28:23.715Z,6.18
2022-11-30T11:31:38.048Z,6.13
2022-11-30T11:34:34.749Z,5.93
2022-11-30T11:37:32.729Z,5.82
2022-11-30T11:40:26.528Z,5.72
2022-11-30T11:43:18.673Z,5.43
2022-11-30T11:46:16.296Z,6.15
2022-11-30T11:49:19.894Z,6.63
2022-11-30T11:55:23.510Z,5.57
2022-11-30T11:58:22.428Z,5.68
2022-11-30T12:01:48.333Z,6.10
2022-11-30T12:04:47.147Z,6.05
2022-11-30T12:07:51.850Z,5.68
2022-11-30T12:11:25.782Z,6.03
2022-11-30T12:14:18.682Z,5.30
2022-11-30T12:17:31.698Z,5.82
2022-11-30T12:21:00.491Z,6.00
2022-11-30T12:24:10.986Z,5.45
2022-11-30T12:27:18.052Z,5.43
2022-11-30T12:30:39.145Z,5.40
2022-11-30T12:33:45.295Z,5.47
2022-11-30T12:36:57.165Z,5.97
2022-11-30T12:40:10.155Z,6.03
2022-11-30T12:43:10.160Z,5.40
2022-11-30T12:46:16.856Z,6.28
2022-11-30T12:49:29.152Z,5.82
2022-11-30T12:52:57.341Z,5.95
2022-11-30T12:56:11.883Z,5.50
2022-11-30T12:59:40.857Z,5.32
2022-11-30T13:03:05.242Z,5.15
2022-11-30T13:06:02.052Z,5.60
2022-11-30T13:09:07.541Z,5.32
2022-11-30T13:12:08.460Z,5.95
2022-11-30T13:15:02.739Z,5.47
2022-11-30T13:17:53.936Z,6.18
2022-11-30T13:20:50.408Z,6.13
2022-11-30T13:24:00.255Z,5.55
2022-11-30T13:27:08.826Z,5.75
2022-11-30T13:30:21.057Z,5.78
2022-11-30T13:33:49.721Z,5.43
2022-11-30T13:36:42.495Z,5.63
2022-11-30T13:39:58.209Z,5.55
2022-11-30T13:42:51.816Z,5.15
2022-11-30T13:45:43.035Z,5.40
2022-11-30T13:48:40.201Z,5.38
2022-11-30T13:51:39.015Z,5.15
2022-11-30T13:54:59.786Z,5.70
2022-11-30T13:57:49.624Z,5.78
2022-11-30T14:00:39.026Z,5.15
2022-11-30T14:06:41.419Z,5.32
2022-11-30T14:09:45.014Z,5.30
2022-11-30T14:12:36.327Z,5.68
2022-11-30T14:15:52.733Z,5.25
2022-11-30T14:18:45.983Z,5.93
2022-11-30T14:21:38.276Z,5.85
2022-11-30T14:24:28.976Z,5.35
2022-11-30T14:27:25.170Z,5.60
2022-11-30T14:30:21.972Z,5.30
2022-11-30T14:33:23.160Z,5.57
2022-11-30T14:36:14.345Z,5.88
2022-11-30T14:39:04.984Z,5.60
2022-11-30T14:41:57.063Z,4.88
2022-11-30T14:44:48.590Z,5.40
2022-11-30T14:47:38.419Z,5.45
2022-11-30T14:50:30.232Z,5.30
2022-11-30T14:53:56.813Z,4.85
2022-11-30T14:56:53.783Z,5.18
2022-11-30T15:00:01.863Z,5.90
2022-11-30T15:02:52.092Z,5.78
2022-11-30T15:05:44.144Z,5.68
2022-11-30T15:08:43.145Z,5.93
2022-11-30T15:11:33.807Z,5.53
2022-11-30T15:14:25.729Z,5.28
2022-11-30T15:17:16.926Z,5.03
2022-11-30T15:20:18.690Z,5.28
2022-11-30T15:23:14.611Z,5.15
2022-11-30T15:26:12.329Z,5.45
2022-11-30T15:29:32.248Z,5.43
2022-11-30T15:32:26.423Z,5.47
2022-11-30T15:35:30.763Z,5.20
2022-11-30T15:38:34.978Z,5.03
2022-11-30T15:41:26.897Z,4.97
2022-11-30T15:44:27.214Z,4.93
2022-11-30T15:47:30.145Z,5.00
2022-11-30T15:50:32.492Z,4.70
2022-11-30T15:53:28.183Z,5.20
2022-11-30T15:56:31.035Z,4.85
2022-11-30T15:59:30.514Z,5.07
2022-11-30T16:02:32.078Z,5.20
2022-11-30T16:05:27.399Z,5.38
2022-11-30T16:08:19.906Z,4.65
2022-11-30T16:11:12.185Z,5.70
2022-11-30T16:14:02.278Z,4.97
2022-11-30T16:16:54.464Z,5.32
2022-11-30T16:19:44.746Z,4.78
2022-11-30T16:22:34.844Z,4.82
2022-11-30T16:25:28.199Z,4.88
2022-11-30T16:28:19.618Z,5.00
2022-11-30T16:31:22.151Z,4.95
2022-11-30T16:34:14.305Z,4.45
2022-11-30T16:37:06.375Z,5.00
2022-11-30T16:39:56.111Z,4.90
2022-11-30T16:42:46.742Z,4.63
2022-11-30T16:45:39.195Z,4.55
2022-11-30T16:48:30.214Z,4.67
2022-11-30T16:51:30.410Z,4.93
2022-11-30T16:54:21.122Z,5.30
2022-11-30T16:57:12.025Z,5.28
2022-11-30T17:00:02.266Z,4.72
2022-11-30T17:03:00.045Z,4.65
2022-11-30T17:05:50.225Z,5.45
2022-11-30T17:08:40.650Z,4.95
2022-11-30T17:11:35.387Z,4.85
2022-11-30T17:14:25.887Z,4.65
2022-11-30T17:17:16.330Z,5.47
2022-11-30T17:20:06.834Z,4.60
2022-11-30T17:22:56.920Z,4.85
2022-11-30T17:25:48.495Z,5.30
2022-11-30T17:28:38.483Z,5.03
2022-11-30T17:31:28.445Z,4.80
2022-11-30T17:34:18.849Z,5.47
2022-11-30T17:37:08.833Z,5.03
2022-11-30T17:39:59.683Z,4.88
2022-11-30T17:42:50.031Z,5.03
2022-11-30T17:45:43.543Z,4.88
2022-11-30T17:48:33.301Z,4.82
2022-11-30T17:51:23.057Z,4.88
2022-11-30T17:54:13.692Z,5.15
2022-11-30T17:57:04.423Z,4.93
2022-11-30T17:59:55.417Z,4.68
2022-11-30T18:02:45.772Z,4.65
2022-11-30T18:05:36.501Z,4.75
2022-11-30T18:08:26.843Z,5.18
2022-11-30T18:11:25.993Z,5.20
2022-11-30T18:14:17.245Z,5.82
2022-11-30T18:17:07.506Z,4.53
2022-11-30T18:19:58.058Z,4.70
2022-11-30T18:22:48.439Z,4.38
2022-11-30T18:25:39.305Z,4.85
2022-11-30T18:28:29.773Z,4.85
2022-11-30T18:31:20.257Z,4.40
2022-11-30T18:34:10.554Z,4.85
2022-11-30T18:37:01.507Z,4.70
2022-11-30T18:39:51.228Z,4.88
2022-11-30T18:42:41.689Z,4.65
2022-11-30T18:45:37.864Z,5.15
2022-11-30T18:48:28.110Z,4.43
2022-11-30T18:51:21.768Z,4.88
2022-11-30T18:54:12.806Z,4.68
2022-11-30T18:57:04.511Z,5.32
2022-11-30T18:59:55.206Z,4.82
2022-11-30T19:02:46.840Z,4.43
2022-11-30T19:05:40.913Z,4.22
2022-11-30T19:08:31.055Z,4.57
2022-11-30T19:11:21.301Z,4.65
2022-11-30T19:14:16.306Z,4.55
2022-11-30T19:17:06.803Z,4.10
2022-11-30T19:19:57.491Z,4.80
2022-11-30T19:22:48.157Z,4.57
2022-11-30T19:25:38.412Z,4.35
2022-11-30T19:28:31.871Z,4.18
2022-11-30T19:34:13.352Z,4.07
2022-11-30T19:37:05.143Z,4.45
2022-11-30T19:39:54.848Z,4.15
2022-11-30T19:42:45.791Z,4.45
2022-11-30T19:45:37.310Z,4.25
2022-11-30T19:48:27.641Z,4.43
2022-11-30T19:51:19.403Z,4.43
2022-11-30T19:54:09.591Z,4.32
2022-11-30T19:57:00.885Z,3.90
2022-11-30T19:59:51.190Z,4.60
2022-11-30T20:02:42.653Z,4.20
2022-11-30T20:05:32.653Z,4.40
2022-11-30T20:08:22.773Z,4.15
2022-11-30T20:11:14.848Z,4.20
2022-11-30T20:14:05.016Z,4.65
2022-11-30T20:16:55.153Z,3.97
2022-11-30T20:19:45.943Z,4.53
2022-11-30T20:22:36.543Z,4.20
2022-11-30T20:25:27.899Z,3.63
2022-11-30T20:28:17.909Z,4.05
2022-11-30T20:31:10.839Z,4.05
2022-11-30T20:34:00.870Z,4.78
2022-11-30T20:36:50.913Z,4.38
2022-11-30T20:39:45.964Z,3.88
2022-11-30T20:42:37.072Z,3.70
2022-11-30T20:45:26.761Z,3.90
2022-11-30T20:48:16.710Z,4.53
2022-11-30T20:51:30.161Z,4.15
2022-11-30T20:54:22.612Z,3.85
2022-11-30T20:57:13.536Z,4.63
2022-11-30T21:00:04.767Z,4.15
2022-11-30T21:02:57.895Z,4.20
2022-11-30T21:05:48.993Z,4.28
2022-11-30T21:08:40.489Z,4.15
2022-11-30T21:11:32.424Z,3.58
2022-11-30T21:14:22.349Z,4.32
2022-11-30T21:17:12.613Z,4.10
2022-11-30T21:20:03.515Z,3.58
2022-11-30T21:22:54.009Z,4.10
2022-11-30T21:25:47.087Z,3.70
2022-11-30T21:28:38.479Z,4.00
2022-11-30T21:31:28.796Z,4.28
2022-11-30T21:34:19.701Z,3.75
2022-11-30T21:37:09.817Z,3.63
2022-11-30T21:39:59.690Z,4.00
2022-11-30T21:42:49.282Z,4.22
2022-11-30T21:45:39.898Z,3.60
2022-11-30T21:48:35.141Z,3.70
2022-11-30T21:51:27.876Z,3.83
2022-11-30T21:54:18.429Z,4.07
2022-11-30T21:57:08.537Z,3.50
2022-11-30T21:59:59.772Z,3.85
2022-11-30T22:02:49.985Z,4.15
2022-11-30T22:05:40.785Z,3.80
2022-11-30T22:08:31.390Z,4.10
2022-11-30T22:11:23.269Z,4.03
2022-11-30T22:14:17.266Z,3.78
2022-11-30T22:17:08.185Z,4.05
2022-11-30T22:19:58.337Z,3.70
2022-11-30T22:22:48.034Z,4.30
2022-11-30T22:25:38.534Z,3.40
2022-11-30T22:28:29.632Z,3.95
2022-11-30T22:31:22.134Z,4.05
2022-11-30T22:34:13.074Z,3.90
2022-11-30T22:37:04.339Z,3.63
2022-11-30T22:39:54.369Z,3.60
2022-11-30T22:42:44.726Z,3.90
2022-11-30T22:45:35.068Z,3.65
2022-11-30T22:48:25.481Z,3.80
2022-11-30T22:51:25.250Z,3.78
2022-11-30T22:54:16.033Z,3.53
2022-11-30T22:57:06.473Z,3.83
2022-11-30T22:59:57.236Z,3.70
2022-11-30T23:02:50.580Z,3.60
2022-11-30T23:05:42.253Z,3.50
2022-11-30T23:08:33.190Z,3.40
2022-11-30T23:11:26.840Z,3.92
2022-11-30T23:14:17.567Z,3.50
2022-11-30T23:17:07.765Z,4.10
2022-11-30T23:19:58.780Z,3.60
2022-11-30T23:22:49.004Z,3.92
2022-11-30T23:25:39.097Z,3.72
2022-11-30T23:28:30.813Z,3.42
2022-11-30T23:31:32.349Z,3.70
2022-11-30T23:34:26.211Z,3.60
2022-11-30T23:37:16.829Z,3.47
2022-11-30T23:40:07.274Z,3.55
2022-11-30T23:42:57.054Z,3.55
2022-11-30T23:45:47.549Z,3.58
2022-11-30T23:48:37.461Z,3.40
2022-11-30T23:51:27.868Z,3.65
2022-11-30T23:54:17.426Z,3.50
2022-11-30T23:57:07.132Z,3.58
2022-11-30T23:59:57.373Z,3.70
